CYAW/YAW METAR and TAF weather

Enter ICAO airport designator
Station Type Date Time Source
CYAW METAR 2020/02/19 14:00 UTC NOAA

CYAW 191400Z 29009G18KT 15SM FEW015 SCT020 BKN110 04/02 A2976 RMK CF1SC2AC3 DA-888FT CUFRA TR SLP079


Station Type Date Time Source
CYAW Decoded METAR 2020/02/19 14:00 UTC NOAA

Shearwater, N. S., Canada (CYAW) 44-38N 063-30W 51M
Feb 19, 2020 - 09:00 AM EST / 2020.02.19 1400 UTC
Wind: from the WNW (290 degrees) at 10 MPH (9 KT) gusting to 21 MPH (18 KT):0
Visibility: 15 mile(s):0
Sky conditions: mostly cloudy
Temperature: 39 F (4 C)
Dew Point: 35 F (2 C)
Relative Humidity: 86%
Pressure (altimeter): 29.76 in. Hg (1007 hPa)
ob: CYAW 191400Z 29009G18KT 15SM FEW015 SCT020 BKN110 04/02 A2976 RMK CF1SC2AC3 DA-888FT CUFRA TR SLP079
cycle: 14

Station Type Date Time Source
CYAW TAF 2020/02/19 12:35 UTC NOAA

TAF CYAW 191130Z 1912/1924 24010G20KT 5SM -RA BR BKN005 OVC008
TEMPO 1912/1914 P6SM NSW SCT005 OVC012
BECMG 1912/1914 27010G20KT
FM191400 27015G25KT P6SM OVC012
TEMPO 1914/1916 OVC025
FM191600 27015G25KT P6SM BKN030
TEMPO 1916/1917 BKN020
FM192300 30015G30KT 3SM -SHSN OVC025
RMK NXT FCST BY 191800Z

Example: see airport list